Time;durP1;ratioP1;P1;durP2;ratioP2;P2;SDS_P1;SDS_P2;PMS_P1;PMS_P2;Temp;Humidity;BMP_temperature;BMP_pressure;BME280_temperature;BME280_humidity;BME280_pressure;Samples;Min_cycle;Max_cycle;Signal;HPM_P1;HPM_P2
2024/04/15 00:01:59;;;;;;;177.90;168.90;;;;;;;;;;5358135;26;20034;-65
2024/04/15 00:04:24;;;;;;;190.55;181.10;;;;;;;;;;5355266;26;20008;-65
2024/04/15 00:06:49;;;;;;;171.27;162.73;;;;;;;;;;5360212;26;20001;-65
2024/04/15 00:09:15;;;;;;;190.27;180.88;;;;;;;;;;5365795;26;20019;-66
2024/04/15 00:11:40;;;;;;;201.80;191.65;;;;;;;;;;5362808;26;20005;-66
2024/04/15 00:14:05;;;;;;;202.82;192.80;;;;;;;;;;5363722;26;20004;-66
2024/04/15 00:16:31;;;;;;;198.55;188.73;;;;;;;;;;5363140;26;20097;-66
2024/04/15 00:18:56;;;;;;;209.65;199.27;;;;;;;;;;5366753;26;20073;-66
2024/04/15 00:21:21;;;;;;;193.48;183.93;;;;;;;;;;5414639;26;20288;-66
2024/04/15 00:23:47;;;;;;;200.68;190.57;;;;;;;;;;5363572;26;20005;-65
2024/04/15 00:26:12;;;;;;;180.20;171.20;;;;;;;;;;5361573;26;20018;-66
2024/04/15 00:28:37;;;;;;;201.68;191.73;;;;;;;;;;5368677;26;20004;-66
2024/04/15 00:31:03;;;;;;;208.52;198.23;;;;;;;;;;5369197;26;20008;-66
2024/04/15 00:33:28;;;;;;;212.18;201.73;;;;;;;;;;5365869;26;20022;-66
2024/04/15 00:35:54;;;;;;;206.15;195.93;;;;;;;;;;5360518;26;20710;-66
2024/04/15 00:38:19;;;;;;;207.75;197.50;;;;;;;;;;5364883;26;20000;-66
2024/04/15 00:40:44;;;;;;;191.40;181.80;;;;;;;;;;5362516;26;20001;-66
2024/04/15 00:43:10;;;;;;;171.68;163.05;;;;;;;;;;5368511;26;20003;-66
2024/04/15 00:45:35;;;;;;;201.75;191.70;;;;;;;;;;5365473;26;20008;-66
2024/04/15 00:48:02;;;;;;;208.73;198.50;;;;;;;;;;5355811;26;20030;-66
2024/04/15 00:50:30;;;;;;;193.02;183.48;;;;;;;;;;5356337;26;20012;-66
2024/04/15 00:52:57;;;;;;;183.77;174.65;;;;;;;;;;5359370;26;20080;-67
2024/04/15 00:55:24;;;;;;;171.15;162.63;;;;;;;;;;5364959;26;20033;-66
2024/04/15 00:57:50;;;;;;;194.27;184.70;;;;;;;;;;5349711;26;20551;-66
2024/04/15 01:00:15;;;;;;;172.77;164.18;;;;;;;;;;5363634;26;20470;-66
2024/04/15 01:02:43;;;;;;;183.88;174.55;;;;;;;;;;5361736;26;20051;-66
2024/04/15 01:05:09;;;;;;;184.55;175.40;;;;;;;;;;5357407;26;20053;-66
2024/04/15 01:07:36;;;;;;;163.40;155.25;;;;;;;;;;5355953;26;20044;-66
2024/04/15 01:10:02;;;;;;;167.55;159.23;;;;;;;;;;5355779;26;20044;-66
2024/04/15 01:12:29;;;;;;;182.32;173.30;;;;;;;;;;5395145;26;20044;-66
2024/04/15 01:14:54;;;;;;;192.68;181.68;;;;;;;;;;5365654;26;21380;-67
2024/04/15 01:17:19;;;;;;;179.00;170.13;;;;;;;;;;5351428;26;20061;-67
2024/04/15 01:19:45;;;;;;;172.75;164.15;;;;;;;;;;5357822;26;20012;-67
2024/04/15 01:22:16;;;;;;;167.63;159.18;;;;;;;;;;5354185;26;20001;-66
2024/04/15 01:24:42;;;;;;;173.52;164.90;;;;;;;;;;5358403;26;20015;-66
2024/04/15 01:27:08;;;;;;;171.48;162.63;;;;;;;;;;5357706;26;20008;-67
2024/04/15 01:29:33;;;;;;;179.43;170.48;;;;;;;;;;5335374;26;20027;-67
2024/04/15 01:31:58;;;;;;;175.13;166.45;;;;;;;;;;5360100;26;20024;-67
2024/04/15 01:34:23;;;;;;;180.90;171.88;;;;;;;;;;5359090;26;20083;-66
2024/04/15 01:36:49;;;;;;;177.20;168.40;;;;;;;;;;5361705;26;20034;-66
2024/04/15 01:39:14;;;;;;;175.15;166.35;;;;;;;;;;5362448;26;20011;-66
2024/04/15 01:41:39;;;;;;;174.75;166.07;;;;;;;;;;5355495;26;20512;-66
2024/04/15 01:44:05;;;;;;;177.32;168.55;;;;;;;;;;5360170;26;21400;-66
2024/04/15 01:46:31;;;;;;;179.65;169.85;;;;;;;;;;5360112;26;20659;-66
2024/04/15 01:48:56;;;;;;;166.45;158.20;;;;;;;;;;5361664;26;20016;-66
2024/04/15 01:51:22;;;;;;;160.55;152.50;;;;;;;;;;5352362;26;20005;-66
2024/04/15 01:53:47;;;;;;;162.80;154.73;;;;;;;;;;5357744;26;20664;-65
2024/04/15 01:56:12;;;;;;;176.15;167.40;;;;;;;;;;5356970;26;20012;-66
2024/04/15 01:58:37;;;;;;;175.05;166.43;;;;;;;;;;5355603;26;20016;-65
2024/04/15 02:01:06;;;;;;;153.75;145.65;;;;;;;;;;5357089;26;20436;-65
2024/04/15 02:03:32;;;;;;;158.75;150.85;;;;;;;;;;5356911;26;20082;-66
2024/04/15 02:05:57;;;;;;;151.45;143.93;;;;;;;;;;5357605;26;20008;-66
2024/04/15 02:08:22;;;;;;;170.73;162.23;;;;;;;;;;5359524;26;20319;-66
2024/04/15 02:10:48;;;;;;;153.52;145.88;;;;;;;;;;5356304;26;20636;-66
2024/04/15 02:13:13;;;;;;;141.43;134.38;;;;;;;;;;5367502;26;20093;-66
2024/04/15 02:15:40;;;;;;;141.23;134.20;;;;;;;;;;5358422;26;20023;-66
2024/04/15 02:18:06;;;;;;;141.65;134.65;;;;;;;;;;5353871;26;20555;-66
2024/04/15 02:20:31;;;;;;;151.27;142.88;;;;;;;;;;5364036;26;20001;-66
2024/04/15 02:22:56;;;;;;;168.50;160.15;;;;;;;;;;5354135;26;20001;-66
2024/04/15 02:25:22;;;;;;;160.88;152.85;;;;;;;;;;5365830;26;20004;-66
2024/04/15 02:27:48;;;;;;;163.30;155.07;;;;;;;;;;5357211;26;20591;-67
2024/04/15 02:30:13;;;;;;;165.55;156.32;;;;;;;;;;5353247;26;20422;-66
2024/04/15 02:32:41;;;;;;;164.07;155.93;;;;;;;;;;5365248;26;20761;-67
2024/04/15 02:35:06;;;;;;;154.73;146.98;;;;;;;;;;5356135;26;20046;-66
2024/04/15 02:37:32;;;;;;;151.57;144.02;;;;;;;;;;5353710;26;20518;-66
2024/04/15 02:39:57;;;;;;;162.25;154.18;;;;;;;;;;5353684;26;20001;-67
2024/04/15 02:42:22;;;;;;;150.38;142.80;;;;;;;;;;5361668;26;20015;-66
2024/04/15 02:44:48;;;;;;;144.43;137.27;;;;;;;;;;5356665;26;20023;-66
2024/04/15 02:47:13;;;;;;;154.90;147.13;;;;;;;;;;5358723;26;20012;-66
2024/04/15 02:49:38;;;;;;;159.20;151.18;;;;;;;;;;5355714;26;20072;-67
2024/04/15 02:52:04;;;;;;;146.93;139.60;;;;;;;;;;5350332;26;20004;-66
2024/04/15 02:54:29;;;;;;;157.63;149.63;;;;;;;;;;5358236;26;20000;-67
2024/04/15 02:56:54;;;;;;;167.85;159.50;;;;;;;;;;5356128;26;20000;-66
2024/04/15 02:59:20;;;;;;;163.95;155.75;;;;;;;;;;5355519;26;20432;-66
2024/04/15 03:01:45;;;;;;;164.25;156.02;;;;;;;;;;5353467;26;20012;-66
2024/04/15 03:04:11;;;;;;;144.85;137.57;;;;;;;;;;5354793;26;20004;-66
2024/04/15 03:06:36;;;;;;;134.55;127.85;;;;;;;;;;5351795;26;20001;-66
2024/04/15 03:09:02;;;;;;;146.50;139.18;;;;;;;;;;5360209;26;20481;-66
2024/04/15 03:11:28;;;;;;;138.32;131.43;;;;;;;;;;5356325;26;20088;-66
2024/04/15 03:13:53;;;;;;;135.70;128.80;;;;;;;;;;5357172;26;20314;-66
2024/04/15 03:16:18;;;;;;;161.52;153.45;;;;;;;;;;5359136;26;21561;-66
2024/04/15 03:18:49;;;;;;;167.15;158.85;;;;;;;;;;5356421;26;20005;-66
2024/04/15 03:21:14;;;;;;;167.82;159.48;;;;;;;;;;5325015;26;20413;-66
2024/04/15 03:23:40;;;;;;;156.75;148.85;;;;;;;;;;5357554;26;20016;-66
2024/04/15 03:26:05;;;;;;;162.57;154.48;;;;;;;;;;5360270;26;21091;-66
2024/04/15 03:28:30;;;;;;;160.55;152.55;;;;;;;;;;5362294;26;20016;-65
2024/04/15 03:30:56;;;;;;;164.65;156.48;;;;;;;;;;5356564;26;20078;-65
2024/04/15 03:33:21;;;;;;;157.75;149.73;;;;;;;;;;5356101;26;20012;-65
2024/04/15 03:35:46;;;;;;;159.13;151.18;;;;;;;;;;5354638;26;20019;-65
2024/04/15 03:38:12;;;;;;;149.27;141.10;;;;;;;;;;5355781;26;20040;-65
2024/04/15 03:40:37;;;;;;;149.48;142.05;;;;;;;;;;5357948;26;20020;-65
2024/04/15 03:43:03;;;;;;;146.02;138.73;;;;;;;;;;5357693;26;20019;-65
2024/04/15 03:45:28;;;;;;;162.18;153.98;;;;;;;;;;5357558;26;20009;-65
2024/04/15 03:47:53;;;;;;;154.93;147.13;;;;;;;;;;5357560;26;21631;-65
2024/04/15 03:50:20;;;;;;;166.75;158.38;;;;;;;;;;5358094;26;20309;-65
2024/04/15 03:52:46;;;;;;;169.27;160.70;;;;;;;;;;5358113;26;20129;-65
2024/04/15 03:55:11;;;;;;;158.88;150.60;;;;;;;;;;5361419;26;20016;-65
2024/04/15 03:57:37;;;;;;;153.50;145.85;;;;;;;;;;5357069;26;20439;-65
2024/04/15 04:00:03;;;;;;;164.40;156.18;;;;;;;;;;5360810;26;20000;-66
2024/04/15 04:02:28;;;;;;;166.30;157.80;;;;;;;;;;5363368;26;20106;-66
2024/04/15 04:04:54;;;;;;;168.52;160.13;;;;;;;;;;5363635;26;20004;-66
2024/04/15 04:07:21;;;;;;;165.93;157.63;;;;;;;;;;5368339;26;20009;-65
2024/04/15 04:09:47;;;;;;;173.55;164.95;;;;;;;;;;5354880;26;20012;-66
2024/04/15 04:12:12;;;;;;;167.32;159.00;;;;;;;;;;5354506;26;20424;-66
2024/04/15 04:14:38;;;;;;;164.32;156.10;;;;;;;;;;5355774;26;20018;-65
2024/04/15 04:17:03;;;;;;;169.32;160.85;;;;;;;;;;5358064;26;20322;-65
2024/04/15 04:19:30;;;;;;;149.23;141.48;;;;;;;;;;5357623;26;20082;-65
2024/04/15 04:21:55;;;;;;;177.95;169.15;;;;;;;;;;5357822;26;20019;-67
2024/04/15 04:24:21;;;;;;;153.80;146.07;;;;;;;;;;5357877;26;20319;-66
2024/04/15 04:26:46;;;;;;;147.50;140.13;;;;;;;;;;5355931;26;20009;-66
2024/04/15 04:29:11;;;;;;;157.13;149.30;;;;;;;;;;5353797;26;20004;-67
2024/04/15 04:31:37;;;;;;;165.00;156.75;;;;;;;;;;5357845;26;20434;-66
2024/04/15 04:34:03;;;;;;;162.40;154.35;;;;;;;;;;5354535;26;20720;-66
2024/04/15 04:36:28;;;;;;;173.07;164.48;;;;;;;;;;5357294;26;20023;-67
2024/04/15 04:38:53;;;;;;;166.40;157.00;;;;;;;;;;5415595;26;20004;-66
2024/04/15 04:41:19;;;;;;;151.82;144.27;;;;;;;;;;5359678;26;20000;-67
2024/04/15 04:43:44;;;;;;;123.72;117.55;;;;;;;;;;5365925;26;20009;-66
2024/04/15 04:46:11;;;;;;;98.13;93.18;;;;;;;;;;5356977;26;20020;-66
2024/04/15 04:48:37;;;;;;;128.50;122.00;;;;;;;;;;5358674;26;20000;-66
2024/04/15 04:51:10;;;;;;;124.93;118.72;;;;;;;;;;5417905;26;20556;-67
2024/04/15 04:53:36;;;;;;;95.05;90.25;;;;;;;;;;5358527;26;20005;-67
2024/04/15 04:56:09;;;;;;;95.18;90.35;;;;;;;;;;5359123;26;20052;-66
2024/04/15 04:58:34;;;;;;;114.55;108.85;;;;;;;;;;5353877;26;20398;-65
2024/04/15 05:01:13;;;;;;;131.18;124.53;;;;;;;;;;5355813;26;20036;-67
2024/04/15 05:03:49;;;;;;;139.38;132.43;;;;;;;;;;5356091;26;20146;-66
2024/04/15 05:06:15;;;;;;;120.60;114.38;;;;;;;;;;5354894;26;20015;-66
2024/04/15 05:08:42;;;;;;;120.25;114.32;;;;;;;;;;5353598;26;20004;-66
2024/04/15 05:11:08;;;;;;;114.05;108.25;;;;;;;;;;5358914;26;20004;-63
2024/04/15 05:13:33;;;;;;;95.93;91.13;;;;;;;;;;5356215;26;20015;-63
2024/04/15 05:16:09;;;;;;;99.72;94.63;;;;;;;;;;5360547;26;20019;-63
2024/04/15 05:18:37;;;;;;;88.45;84.00;;;;;;;;;;5354225;26;20346;-63
2024/04/15 05:21:03;;;;;;;103.70;98.50;;;;;;;;;;5357480;26;20017;-63
2024/04/15 05:23:29;;;;;;;87.72;83.32;;;;;;;;;;5354539;26;20001;-64
2024/04/15 05:25:56;;;;;;;110.65;105.15;;;;;;;;;;5356490;26;20008;-63
2024/04/15 05:28:21;;;;;;;92.88;88.05;;;;;;;;;;5358810;26;20005;-64
2024/04/15 05:30:47;;;;;;;106.65;101.00;;;;;;;;;;5353302;26;20427;-66
2024/04/15 05:33:12;;;;;;;116.28;110.40;;;;;;;;;;5349323;26;20000;-64
2024/04/15 05:35:38;;;;;;;103.57;98.18;;;;;;;;;;5361877;26;20026;-64
2024/04/15 05:38:03;;;;;;;102.90;97.68;;;;;;;;;;5357410;26;20008;-64
2024/04/15 05:40:29;;;;;;;93.63;88.93;;;;;;;;;;5356687;26;20636;-66
2024/04/15 05:42:56;;;;;;;102.63;97.38;;;;;;;;;;5355483;26;20435;-67
2024/04/15 05:45:21;;;;;;;94.43;89.72;;;;;;;;;;5356663;26;20017;-66
2024/04/15 05:47:47;;;;;;;107.65;102.25;;;;;;;;;;5366456;26;20000;-67
2024/04/15 05:50:12;;;;;;;119.68;113.57;;;;;;;;;;5358348;26;20022;-64
2024/04/15 05:52:37;;;;;;;128.52;121.93;;;;;;;;;;5354489;26;20012;-64
2024/04/15 05:55:03;;;;;;;138.35;131.35;;;;;;;;;;5353509;26;20051;-64
2024/04/15 05:57:28;;;;;;;133.20;126.50;;;;;;;;;;5357201;26;20015;-64
2024/04/15 05:59:54;;;;;;;131.38;124.85;;;;;;;;;;5355073;26;20013;-64
2024/04/15 06:02:19;;;;;;;108.10;102.68;;;;;;;;;;5353218;26;20094;-67
2024/04/15 06:04:44;;;;;;;130.13;123.63;;;;;;;;;;5351751;26;20020;-64
2024/04/15 06:07:10;;;;;;;122.53;116.45;;;;;;;;;;5353788;26;20054;-64
2024/04/15 06:09:40;;;;;;;92.78;88.10;;;;;;;;;;5361183;26;20009;-66
2024/04/15 06:12:06;;;;;;;104.23;99.03;;;;;;;;;;5357563;26;20000;-66
2024/04/15 06:14:31;;;;;;;100.35;95.32;;;;;;;;;;5353821;26;20052;-66
2024/04/15 06:16:57;;;;;;;109.60;104.10;;;;;;;;;;5354571;26;20020;-63
2024/04/15 06:19:23;;;;;;;116.38;110.57;;;;;;;;;;5356520;26;20000;-64
2024/04/15 06:21:48;;;;;;;94.38;89.68;;;;;;;;;;5363905;26;20005;-63
2024/04/15 06:24:14;;;;;;;93.30;88.35;;;;;;;;;;5361746;26;20012;-66
2024/04/15 06:26:40;;;;;;;93.10;88.47;;;;;;;;;;5358894;26;20048;-63
2024/04/15 06:29:05;;;;;;;93.05;88.35;;;;;;;;;;5357626;26;20001;-66
2024/04/15 06:31:32;;;;;;;83.72;79.60;;;;;;;;;;5350010;26;20015;-66
2024/04/15 06:34:00;;;;;;;97.38;92.50;;;;;;;;;;5353425;26;20119;-66
2024/04/15 06:36:26;;;;;;;84.72;80.28;;;;;;;;;;5356231;26;20696;-66
2024/04/15 06:38:52;;;;;;;83.97;79.80;;;;;;;;;;5353273;26;20434;-67
2024/04/15 06:41:17;;;;;;;98.28;93.35;;;;;;;;;;5355435;26;20004;-67
2024/04/15 06:43:43;;;;;;;95.45;90.63;;;;;;;;;;5359269;26;20023;-66
2024/04/15 06:46:08;;;;;;;101.20;96.10;;;;;;;;;;5360622;26;20000;-66
2024/04/15 06:48:33;;;;;;;105.25;100.00;;;;;;;;;;5364112;26;20005;-66
2024/04/15 06:50:59;;;;;;;96.65;91.85;;;;;;;;;;5360206;26;20012;-63
2024/04/15 06:53:24;;;;;;;100.50;95.53;;;;;;;;;;5360894;26;20319;-64
2024/04/15 06:55:49;;;;;;;115.38;109.57;;;;;;;;;;5356745;26;22231;-63
2024/04/15 06:58:15;;;;;;;103.22;98.07;;;;;;;;;;5364543;26;20012;-63
2024/04/15 07:00:40;;;;;;;125.40;119.20;;;;;;;;;;5363255;26;20016;-64
2024/04/15 07:03:05;;;;;;;134.77;127.95;;;;;;;;;;5360938;26;20005;-63
2024/04/15 07:05:31;;;;;;;104.18;98.95;;;;;;;;;;5357179;26;20303;-64
2024/04/15 07:07:57;;;;;;;118.55;112.60;;;;;;;;;;5366052;26;20004;-64
2024/04/15 07:10:22;;;;;;;132.20;125.60;;;;;;;;;;5357981;26;20019;-66
2024/04/15 07:12:48;;;;;;;138.75;131.85;;;;;;;;;;5361430;26;20023;-66
2024/04/15 07:15:13;;;;;;;120.63;114.65;;;;;;;;;;5359913;26;20064;-66
2024/04/15 07:17:38;;;;;;;131.52;124.95;;;;;;;;;;5364520;26;20788;-66
2024/04/15 07:20:07;;;;;;;143.90;136.60;;;;;;;;;;5364497;26;20361;-66
2024/04/15 07:22:33;;;;;;;158.40;150.52;;;;;;;;;;5355584;26;20426;-64
2024/04/15 07:25:02;;;;;;;159.25;151.35;;;;;;;;;;5361706;26;20008;-64
2024/04/15 07:27:34;;;;;;;146.20;138.80;;;;;;;;;;5355244;26;20367;-66
2024/04/15 07:30:00;;;;;;;114.93;109.20;;;;;;;;;;5362724;26;20022;-66
2024/04/15 07:32:25;;;;;;;119.85;113.88;;;;;;;;;;5361444;26;20012;-64
2024/04/15 07:34:50;;;;;;;108.53;103.18;;;;;;;;;;5364077;26;20078;-64
2024/04/15 07:37:16;;;;;;;104.10;98.95;;;;;;;;;;5364624;26;20012;-66
2024/04/15 07:39:41;;;;;;;110.05;104.60;;;;;;;;;;5360346;26;20012;-66
2024/04/15 07:42:07;;;;;;;97.18;92.13;;;;;;;;;;5360887;26;20001;-66
2024/04/15 07:44:32;;;;;;;106.65;101.32;;;;;;;;;;5360641;26;20031;-66
2024/04/15 07:46:58;;;;;;;140.75;133.50;;;;;;;;;;5369502;26;20030;-66
2024/04/15 07:49:23;;;;;;;78.35;74.32;;;;;;;;;;5383577;26;20342;-66
2024/04/15 07:51:49;;;;;;;151.48;143.48;;;;;;;;;;5361627;26;20660;-66
2024/04/15 07:54:14;;;;;;;72.22;67.47;;;;;;;;;;5365353;26;20314;-66
2024/04/15 07:56:39;;;;;;;47.30;44.85;;;;;;;;;;5359275;26;20014;-64
2024/04/15 07:59:05;;;;;;;47.97;45.45;;;;;;;;;;5356140;26;20009;-63
2024/04/15 08:01:30;;;;;;;49.65;47.13;;;;;;;;;;5360928;26;20023;-64
2024/04/15 08:03:55;;;;;;;52.13;49.47;;;;;;;;;;5355089;26;20434;-64
2024/04/15 08:06:21;;;;;;;47.17;44.78;;;;;;;;;;5363726;26;20028;-64
2024/04/15 08:08:46;;;;;;;47.72;45.30;;;;;;;;;;5357849;26;20023;-64
2024/04/15 08:11:12;;;;;;;52.67;49.97;;;;;;;;;;5363074;26;20009;-63
2024/04/15 08:13:37;;;;;;;46.33;43.95;;;;;;;;;;5358908;26;20008;-63
2024/04/15 08:16:02;;;;;;;52.47;49.78;;;;;;;;;;5365565;26;20023;-63
2024/04/15 08:18:28;;;;;;;58.97;55.97;;;;;;;;;;5359802;26;20114;-63
2024/04/15 08:20:56;;;;;;;44.22;41.92;;;;;;;;;;5363034;26;20024;-63
2024/04/15 08:23:22;;;;;;;39.67;37.67;;;;;;;;;;5361197;26;20019;-63
2024/04/15 08:25:57;;;;;;;44.95;42.55;;;;;;;;;;5362218;26;20032;-63
2024/04/15 08:28:24;;;;;;;47.83;45.00;;;;;;;;;;5359226;26;20037;-63
2024/04/15 08:30:49;;;;;;;41.28;39.17;;;;;;;;;;5412800;26;20005;-64
2024/04/15 08:33:15;;;;;;;46.97;44.58;;;;;;;;;;5361339;26;20078;-63
2024/04/15 08:35:41;;;;;;;45.55;43.22;;;;;;;;;;5356856;26;20013;-63
2024/04/15 08:38:07;;;;;;;45.70;43.40;;;;;;;;;;5363695;26;20413;-64
2024/04/15 08:40:32;;;;;;;47.88;45.47;;;;;;;;;;5363935;26;20012;-64
2024/04/15 08:43:02;;;;;;;45.10;42.80;;;;;;;;;;5361450;26;20780;-63
2024/04/15 08:45:29;;;;;;;38.30;35.53;;;;;;;;;;5360972;26;20116;-64
2024/04/15 08:47:57;;;;;;;39.60;37.60;;;;;;;;;;5360908;26;20287;-64
2024/04/15 08:50:25;;;;;;;39.65;37.65;;;;;;;;;;5358136;26;20020;-64
2024/04/15 08:52:54;;;;;;;46.80;44.35;;;;;;;;;;5363214;26;20594;-63
2024/04/15 08:55:21;;;;;;;56.42;53.53;;;;;;;;;;5361442;26;20020;-64
2024/04/15 08:57:47;;;;;;;53.22;50.53;;;;;;;;;;5354807;26;20048;-63
2024/04/15 09:00:17;;;;;;;54.30;51.60;;;;;;;;;;5360484;26;20448;-64
2024/04/15 09:02:44;;;;;;;49.45;46.95;;;;;;;;;;5361894;26;19997;-63
2024/04/15 09:05:09;;;;;;;55.38;52.58;;;;;;;;;;5357326;26;20422;-63
2024/04/15 09:07:35;;;;;;;97.05;92.22;;;;;;;;;;5351589;26;20059;-63
2024/04/15 09:10:00;;;;;;;46.08;43.75;;;;;;;;;;5373964;26;20019;-63
2024/04/15 09:12:35;;;;;;;98.88;93.88;;;;;;;;;;5356362;26;20013;-64
2024/04/15 09:15:01;;;;;;;170.90;162.48;;;;;;;;;;5358200;26;20445;-63
2024/04/15 09:17:26;;;;;;;107.00;101.70;;;;;;;;;;5358872;26;20004;-63
2024/04/15 09:19:51;;;;;;;68.25;64.85;;;;;;;;;;5356392;26;20009;-62
2024/04/15 09:22:17;;;;;;;152.13;144.55;;;;;;;;;;5367588;26;20458;-66
2024/04/15 09:24:42;;;;;;;103.75;98.60;;;;;;;;;;5357951;26;20004;-66
2024/04/15 09:27:08;;;;;;;178.18;169.35;;;;;;;;;;5361650;26;20012;-66
2024/04/15 09:29:33;;;;;;;263.50;250.38;;;;;;;;;;5360070;26;20012;-66
2024/04/15 09:31:59;;;;;;;181.13;172.05;;;;;;;;;;5357959;26;20011;-66
2024/04/15 09:34:25;;;;;;;178.55;168.07;;;;;;;;;;5355858;26;20009;-66
2024/04/15 09:36:52;;;;;;;128.80;122.35;;;;;;;;;;5357287;26;20005;-63
2024/04/15 09:39:20;;;;;;;103.43;98.15;;;;;;;;;;5355592;26;20012;-63
2024/04/15 09:41:46;;;;;;;145.23;138.00;;;;;;;;;;5356579;26;20015;-68
2024/04/15 09:44:12;;;;;;;106.30;101.03;;;;;;;;;;5412716;26;20629;-66
2024/04/15 09:46:40;;;;;;;126.00;119.72;;;;;;;;;;5357996;26;20020;-66
2024/04/15 09:49:06;;;;;;;112.32;106.68;;;;;;;;;;5355217;26;20055;-67
2024/04/15 09:51:33;;;;;;;110.25;104.75;;;;;;;;;;5359602;26;20427;-66
2024/04/15 09:54:05;;;;;;;107.25;101.88;;;;;;;;;;5354063;26;20005;-66
2024/04/15 09:56:34;;;;;;;121.72;115.60;;;;;;;;;;5355159;26;20048;-63
2024/04/15 09:59:01;;;;;;;101.75;96.63;;;;;;;;;;5414079;26;20721;-63
2024/04/15 10:01:31;;;;;;;231.55;219.90;;;;;;;;;;5363232;26;20320;-63
2024/04/15 10:04:01;;;;;;;172.60;163.88;;;;;;;;;;5357460;26;20374;-63
2024/04/15 10:06:41;;;;;;;190.10;180.53;;;;;;;;;;5360847;26;20078;-63
2024/04/15 10:09:07;;;;;;;270.75;257.25;;;;;;;;;;5357484;26;20286;-64
2024/04/15 10:11:34;;;;;;;109.07;103.57;;;;;;;;;;5355668;26;20019;-64
2024/04/15 10:14:00;;;;;;;248.15;235.77;;;;;;;;;;5359815;26;20005;-64
2024/04/15 10:16:26;;;;;;;144.57;137.30;;;;;;;;;;5357117;26;20017;-64
2024/04/15 10:18:58;;;;;;;88.07;83.63;;;;;;;;;;5360133;26;20692;-64
2024/04/15 10:21:24;;;;;;;235.50;223.77;;;;;;;;;;5356890;26;20390;-64
2024/04/15 10:23:49;;;;;;;120.63;114.53;;;;;;;;;;5356543;26;20000;-64
2024/04/15 10:26:15;;;;;;;121.22;115.07;;;;;;;;;;5359863;26;21374;-64
2024/04/15 10:28:41;;;;;;;98.72;93.72;;;;;;;;;;5360218;26;20386;-64
2024/04/15 10:31:06;;;;;;;211.00;200.35;;;;;;;;;;5357094;26;20024;-64
2024/04/15 10:33:31;;;;;;;244.10;231.88;;;;;;;;;;5361397;26;20008;-64
2024/04/15 10:35:57;;;;;;;224.73;213.25;;;;;;;;;;5358855;26;20040;-64
2024/04/15 10:38:27;;;;;;;150.25;142.63;;;;;;;;;;5363075;26;20015;-64
2024/04/15 10:40:54;;;;;;;160.52;152.52;;;;;;;;;;5355513;26;20020;-64
2024/04/15 10:43:23;;;;;;;158.65;150.73;;;;;;;;;;5356408;26;20008;-64
2024/04/15 10:45:48;;;;;;;100.57;95.43;;;;;;;;;;5352398;26;21461;-64
2024/04/15 10:48:14;;;;;;;108.10;102.68;;;;;;;;;;5359365;26;20027;-64
2024/04/15 10:50:40;;;;;;;133.27;126.65;;;;;;;;;;5354923;26;20019;-64
2024/04/15 10:53:06;;;;;;;101.13;96.10;;;;;;;;;;5359942;26;19997;-66
2024/04/15 10:55:31;;;;;;;80.22;76.20;;;;;;;;;;5353667;26;20015;-64
2024/04/15 10:57:58;;;;;;;46.78;44.38;;;;;;;;;;5354327;26;20437;-64
2024/04/15 11:00:24;;;;;;;45.80;43.47;;;;;;;;;;5355179;26;20004;-63
2024/04/15 11:02:51;;;;;;;41.58;39.45;;;;;;;;;;5354049;26;20008;-63
2024/04/15 11:05:18;;;;;;;46.30;43.95;;;;;;;;;;5360233;26;20016;-64
2024/04/15 11:07:47;;;;;;;40.63;38.53;;;;;;;;;;5358159;26;20048;-64
2024/04/15 11:10:13;;;;;;;40.17;38.10;;;;;;;;;;5353770;26;20016;-64
2024/04/15 11:12:39;;;;;;;49.33;46.83;;;;;;;;;;5359129;26;20019;-65
2024/04/15 11:15:12;;;;;;;48.75;46.20;;;;;;;;;;5355038;26;20019;-66
2024/04/15 11:18:10;;;;;;;47.67;45.25;;;;;;;;;;5355744;26;20009;-66
2024/04/15 11:20:35;;;;;;;44.80;42.53;;;;;;;;;;5356276;26;20009;-66
2024/04/15 11:23:01;;;;;;;44.15;41.85;;;;;;;;;;5359441;26;20019;-66
2024/04/15 11:25:26;;;;;;;52.22;49.58;;;;;;;;;;5354155;26;20114;-66
2024/04/15 11:27:54;;;;;;;53.08;50.30;;;;;;;;;;5359884;26;20082;-66
2024/04/15 11:30:23;;;;;;;48.65;46.15;;;;;;;;;;5366528;26;20015;-66
2024/04/15 11:32:50;;;;;;;49.55;46.95;;;;;;;;;;5411634;26;20012;-70
2024/04/15 11:35:15;;;;;;;36.88;34.97;;;;;;;;;;5358012;26;20005;-66
2024/04/15 11:37:41;;;;;;;36.80;34.90;;;;;;;;;;5359673;26;20078;-63
2024/04/15 11:40:10;;;;;;;34.80;33.00;;;;;;;;;;5356449;26;20363;-64
2024/04/15 11:42:37;;;;;;;35.15;33.03;;;;;;;;;;5366846;26;20386;-63
2024/04/15 11:45:06;;;;;;;37.92;35.97;;;;;;;;;;5360391;26;20016;-64
2024/04/15 11:47:32;;;;;;;32.25;30.55;;;;;;;;;;5360105;26;20791;-64
2024/04/15 11:50:00;;;;;;;36.50;34.60;;;;;;;;;;5357948;26;20012;-63
2024/04/15 11:52:25;;;;;;;38.95;36.95;;;;;;;;;;5358840;26;20026;-64
2024/04/15 11:54:53;;;;;;;42.15;40.00;;;;;;;;;;5361104;26;20001;-64
2024/04/15 11:57:18;;;;;;;75.25;71.50;;;;;;;;;;5367137;26;20000;-64
2024/04/15 11:59:44;;;;;;;64.82;61.35;;;;;;;;;;5361996;26;20078;-63
2024/04/15 12:02:10;;;;;;;63.72;60.55;;;;;;;;;;5358422;26;20148;-64
2024/04/15 12:04:36;;;;;;;109.20;103.80;;;;;;;;;;5360327;26;20019;-64
2024/04/15 12:07:01;;;;;;;77.07;73.22;;;;;;;;;;5356238;26;20008;-64
2024/04/15 12:09:30;;;;;;;72.10;68.38;;;;;;;;;;5357652;26;20108;-64
2024/04/15 12:11:55;;;;;;;66.38;63.08;;;;;;;;;;5362812;26;20008;-63
2024/04/15 12:14:20;;;;;;;90.70;86.03;;;;;;;;;;5358100;26;20052;-63
2024/04/15 12:16:46;;;;;;;113.95;108.28;;;;;;;;;;5359530;26;20650;-65
2024/04/15 12:19:11;;;;;;;133.15;126.50;;;;;;;;;;5358366;26;20429;-65
2024/04/15 12:21:36;;;;;;;108.88;103.43;;;;;;;;;;5360412;26;20055;-65
2024/04/15 12:24:02;;;;;;;68.00;64.60;;;;;;;;;;5358228;26;20012;-68
2024/04/15 12:26:28;;;;;;;103.25;98.13;;;;;;;;;;5360196;26;20376;-65
2024/04/15 12:28:53;;;;;;;69.53;66.05;;;;;;;;;;5358220;26;20353;-66
2024/04/15 12:31:18;;;;;;;62.00;58.90;;;;;;;;;;5358094;26;20004;-66
2024/04/15 12:33:44;;;;;;;75.57;71.80;;;;;;;;;;5362635;26;19996;-67
2024/04/15 12:36:11;;;;;;;91.82;87.25;;;;;;;;;;5359078;26;20008;-65
2024/04/15 12:38:36;;;;;;;122.78;116.65;;;;;;;;;;5367583;26;20416;-65
2024/04/15 12:41:02;;;;;;;159.82;151.85;;;;;;;;;;5394653;26;20059;-67
2024/04/15 12:43:27;;;;;;;97.00;92.20;;;;;;;;;;5356654;26;20000;-67
2024/04/15 12:45:52;;;;;;;123.63;117.47;;;;;;;;;;5361002;26;20000;-67
2024/04/15 12:48:18;;;;;;;118.50;112.63;;;;;;;;;;5359448;26;20009;-68
2024/04/15 12:50:44;;;;;;;107.45;101.90;;;;;;;;;;5338523;26;20009;-68
2024/04/15 12:53:11;;;;;;;123.57;117.47;;;;;;;;;;5362076;26;20016;-67
2024/04/15 12:55:36;;;;;;;118.15;112.30;;;;;;;;;;5359827;26;20012;-66
2024/04/15 12:58:03;;;;;;;82.00;77.80;;;;;;;;;;5355165;26;20027;-68
2024/04/15 13:00:28;;;;;;;82.18;78.13;;;;;;;;;;5356977;26;20001;-68
2024/04/15 13:02:54;;;;;;;65.95;62.65;;;;;;;;;;5359479;26;19997;-66
2024/04/15 13:05:19;;;;;;;64.97;61.70;;;;;;;;;;5360721;26;20026;-66
2024/04/15 13:07:45;;;;;;;75.82;72.00;;;;;;;;;;5352615;26;20375;-67
2024/04/15 13:10:12;;;;;;;69.28;65.82;;;;;;;;;;5357625;26;20513;-67
2024/04/15 13:12:38;;;;;;;71.70;68.10;;;;;;;;;;5355533;26;20016;-71
2024/04/15 13:15:04;;;;;;;70.47;66.88;;;;;;;;;;5358355;26;20012;-67
2024/04/15 13:17:29;;;;;;;44.83;42.58;;;;;;;;;;5359113;26;20004;-67
2024/04/15 13:19:54;;;;;;;47.17;44.72;;;;;;;;;;5353442;26;20071;-66
2024/04/15 13:22:20;;;;;;;62.63;59.50;;;;;;;;;;5363836;26;19997;-66
2024/04/15 13:24:45;;;;;;;63.80;60.60;;;;;;;;;;5356406;26;20335;-66
2024/04/15 13:27:10;;;;;;;63.80;60.60;;;;;;;;;;5356297;26;20044;-67
2024/04/15 13:29:36;;;;;;;64.10;60.90;;;;;;;;;;5355375;26;20012;-73
2024/04/15 13:32:02;;;;;;;64.75;61.33;;;;;;;;;;5356724;26;20032;-70
2024/04/15 13:34:27;;;;;;;57.65;54.72;;;;;;;;;;5355130;26;20000;-68
2024/04/15 13:36:55;;;;;;;62.45;59.33;;;;;;;;;;5363647;26;20013;-67
2024/04/15 13:39:22;;;;;;;101.63;96.60;;;;;;;;;;5353150;26;20043;-66
2024/04/15 13:41:48;;;;;;;87.05;82.72;;;;;;;;;;5355888;26;20000;-67
2024/04/15 13:44:13;;;;;;;93.03;88.45;;;;;;;;;;5357538;26;20074;-67
2024/04/15 13:46:38;;;;;;;100.35;95.38;;;;;;;;;;5354456;26;20691;-67
2024/04/15 13:49:04;;;;;;;103.88;98.72;;;;;;;;;;5352767;26;20012;-67
2024/04/15 13:51:30;;;;;;;85.25;81.00;;;;;;;;;;5360939;26;20008;-67
2024/04/15 13:53:55;;;;;;;126.38;120.13;;;;;;;;;;5356486;26;20007;-67
2024/04/15 13:56:21;;;;;;;85.10;80.80;;;;;;;;;;5357620;26;20036;-67